sensor_id;sensor_type;location;lat;lon;timestamp;temperature;humidity
26621;DHT22;14253;44.840;10.444;2022-12-10T00:01:16;4.80;99.90
26621;DHT22;14253;44.840;10.444;2022-12-10T00:03:43;4.80;99.90
26621;DHT22;14253;44.840;10.444;2022-12-10T00:06:12;4.80;99.90
26621;DHT22;14253;44.840;10.444;2022-12-10T00:08:38;4.80;99.90
26621;DHT22;14253;44.840;10.444;2022-12-10T00:11:06;4.90;99.90
26621;DHT22;14253;44.840;10.444;2022-12-10T00:13:34;4.80;99.90
26621;DHT22;14253;44.840;10.444;2022-12-10T00:16:01;4.90;99.90
26621;DHT22;14253;44.840;10.444;2022-12-10T00:18:28;4.90;99.90
26621;DHT22;14253;44.840;10.444;2022-12-10T00:20:55;4.90;99.90
26621;DHT22;14253;44.840;10.444;2022-12-10T00:23:21;4.90;99.90
26621;DHT22;14253;44.840;10.444;2022-12-10T00:25:47;4.90;99.90
26621;DHT22;14253;44.840;10.444;2022-12-10T00:28:13;4.90;99.90
26621;DHT22;14253;44.840;10.444;2022-12-10T00:30:39;4.90;99.90
26621;DHT22;14253;44.840;10.444;2022-12-10T00:33:05;5.00;99.90
26621;DHT22;14253;44.840;10.444;2022-12-10T00:35:35;5.00;99.90
26621;DHT22;14253;44.840;10.444;2022-12-10T00:38:01;5.00;99.90
26621;DHT22;14253;44.840;10.444;2022-12-10T00:40:27;5.00;99.90
26621;DHT22;14253;44.840;10.444;2022-12-10T00:42:53;5.00;99.90
26621;DHT22;14253;44.840;10.444;2022-12-10T00:45:19;5.00;99.90
26621;DHT22;14253;44.840;10.444;2022-12-10T00:47:45;5.00;99.90
26621;DHT22;14253;44.840;10.444;2022-12-10T00:50:11;5.00;99.90
26621;DHT22;14253;44.840;10.444;2022-12-10T00:52:37;5.00;99.90
26621;DHT22;14253;44.840;10.444;2022-12-10T00:55:03;5.00;99.90
26621;DHT22;14253;44.840;10.444;2022-12-10T00:57:29;5.00;99.90
26621;DHT22;14253;44.840;10.444;2022-12-10T00:59:55;5.00;99.90
26621;DHT22;14253;44.840;10.444;2022-12-10T01:02:21;5.00;99.90
26621;DHT22;14253;44.840;10.444;2022-12-10T01:04:52;5.00;99.90
26621;DHT22;14253;44.840;10.444;2022-12-10T01:07:19;5.00;99.90
26621;DHT22;14253;44.840;10.444;2022-12-10T01:09:45;5.00;99.90
26621;DHT22;14253;44.840;10.444;2022-12-10T01:12:11;4.90;99.90
26621;DHT22;14253;44.840;10.444;2022-12-10T01:14:36;4.90;99.90
26621;DHT22;14253;44.840;10.444;2022-12-10T01:17:04;4.90;99.90
26621;DHT22;14253;44.840;10.444;2022-12-10T01:19:32;4.90;99.90
26621;DHT22;14253;44.840;10.444;2022-12-10T01:22:01;4.90;99.90
26621;DHT22;14253;44.840;10.444;2022-12-10T01:24:29;4.90;99.90
26621;DHT22;14253;44.840;10.444;2022-12-10T01:26:55;4.80;99.90
26621;DHT22;14253;44.840;10.444;2022-12-10T01:29:22;4.80;99.90
26621;DHT22;14253;44.840;10.444;2022-12-10T01:31:51;4.80;99.90
26621;DHT22;14253;44.840;10.444;2022-12-10T01:34:18;4.80;99.90
26621;DHT22;14253;44.840;10.444;2022-12-10T01:36:44;4.70;99.90
26621;DHT22;14253;44.840;10.444;2022-12-10T01:39:13;4.80;99.90
26621;DHT22;14253;44.840;10.444;2022-12-10T01:41:46;4.70;99.90
26621;DHT22;14253;44.840;10.444;2022-12-10T01:46:40;4.70;99.90
26621;DHT22;14253;44.840;10.444;2022-12-10T01:49:09;4.70;99.90
26621;DHT22;14253;44.840;10.444;2022-12-10T01:51:39;4.70;99.90
26621;DHT22;14253;44.840;10.444;2022-12-10T01:54:09;4.60;99.90
26621;DHT22;14253;44.840;10.444;2022-12-10T01:56:38;4.60;99.90
26621;DHT22;14253;44.840;10.444;2022-12-10T01:59:06;4.60;99.90
26621;DHT22;14253;44.840;10.444;2022-12-10T02:07:06;4.60;99.90
26621;DHT22;14253;44.840;10.444;2022-12-10T02:12:28;4.60;99.90
26621;DHT22;14253;44.840;10.444;2022-12-10T02:15:19;4.60;99.90
26621;DHT22;14253;44.840;10.444;2022-12-10T02:17:54;4.60;99.90
26621;DHT22;14253;44.840;10.444;2022-12-10T02:23:02;4.60;99.90
26621;DHT22;14253;44.840;10.444;2022-12-10T02:28:28;4.60;99.90
26621;DHT22;14253;44.840;10.444;2022-12-10T02:30:58;4.60;99.90
26621;DHT22;14253;44.840;10.444;2022-12-10T02:33:27;4.60;99.90
26621;DHT22;14253;44.840;10.444;2022-12-10T02:35:56;4.60;99.90
26621;DHT22;14253;44.840;10.444;2022-12-10T02:38:28;4.60;99.90
26621;DHT22;14253;44.840;10.444;2022-12-10T02:41:09;4.60;99.90
26621;DHT22;14253;44.840;10.444;2022-12-10T02:43:36;4.60;99.90
26621;DHT22;14253;44.840;10.444;2022-12-10T02:46:05;4.60;99.90
26621;DHT22;14253;44.840;10.444;2022-12-10T02:48:33;4.60;99.90
26621;DHT22;14253;44.840;10.444;2022-12-10T02:51:00;4.50;99.90
26621;DHT22;14253;44.840;10.444;2022-12-10T02:53:26;4.50;99.90
26621;DHT22;14253;44.840;10.444;2022-12-10T02:56:20;4.50;99.90
26621;DHT22;14253;44.840;10.444;2022-12-10T03:04:29;4.50;99.90
26621;DHT22;14253;44.840;10.444;2022-12-10T03:07:03;4.50;99.90
26621;DHT22;14253;44.840;10.444;2022-12-10T03:09:48;4.40;99.90
26621;DHT22;14253;44.840;10.444;2022-12-10T03:12:33;4.40;99.90
26621;DHT22;14253;44.840;10.444;2022-12-10T03:15:05;4.40;99.90
26621;DHT22;14253;44.840;10.444;2022-12-10T03:17:32;4.40;99.90
26621;DHT22;14253;44.840;10.444;2022-12-10T03:20:00;4.40;99.90
26621;DHT22;14253;44.840;10.444;2022-12-10T03:22:28;4.40;99.90
26621;DHT22;14253;44.840;10.444;2022-12-10T03:24:55;4.40;99.90
26621;DHT22;14253;44.840;10.444;2022-12-10T03:27:24;4.50;99.90
26621;DHT22;14253;44.840;10.444;2022-12-10T03:29:55;4.50;99.90
26621;DHT22;14253;44.840;10.444;2022-12-10T03:32:23;4.50;99.90
26621;DHT22;14253;44.840;10.444;2022-12-10T03:34:53;4.50;99.90
26621;DHT22;14253;44.840;10.444;2022-12-10T03:37:21;4.50;99.90
26621;DHT22;14253;44.840;10.444;2022-12-10T03:39:48;4.50;99.90
26621;DHT22;14253;44.840;10.444;2022-12-10T03:42:14;4.50;99.90
26621;DHT22;14253;44.840;10.444;2022-12-10T03:44:40;4.50;99.90
26621;DHT22;14253;44.840;10.444;2022-12-10T03:47:09;4.60;99.90
26621;DHT22;14253;44.840;10.444;2022-12-10T03:49:36;4.60;99.90
26621;DHT22;14253;44.840;10.444;2022-12-10T03:52:02;4.60;99.90
26621;DHT22;14253;44.840;10.444;2022-12-10T03:54:28;4.60;99.90
26621;DHT22;14253;44.840;10.444;2022-12-10T03:56:54;4.70;99.90
26621;DHT22;14253;44.840;10.444;2022-12-10T03:59:20;4.70;99.90
26621;DHT22;14253;44.840;10.444;2022-12-10T04:01:47;4.70;99.90
26621;DHT22;14253;44.840;10.444;2022-12-10T04:04:13;4.70;99.90
26621;DHT22;14253;44.840;10.444;2022-12-10T04:06:41;4.80;99.90
26621;DHT22;14253;44.840;10.444;2022-12-10T04:09:09;4.70;99.90
26621;DHT22;14253;44.840;10.444;2022-12-10T04:11:36;4.70;99.90
26621;DHT22;14253;44.840;10.444;2022-12-10T04:14:02;4.70;99.90
26621;DHT22;14253;44.840;10.444;2022-12-10T04:16:46;4.70;99.90
26621;DHT22;14253;44.840;10.444;2022-12-10T04:19:14;4.70;99.90
26621;DHT22;14253;44.840;10.444;2022-12-10T04:21:42;4.70;99.90
26621;DHT22;14253;44.840;10.444;2022-12-10T04:24:29;4.70;99.90
26621;DHT22;14253;44.840;10.444;2022-12-10T04:27:27;4.70;99.90
26621;DHT22;14253;44.840;10.444;2022-12-10T04:29:55;4.70;99.90
26621;DHT22;14253;44.840;10.444;2022-12-10T04:32:22;4.70;99.90
26621;DHT22;14253;44.840;10.444;2022-12-10T04:34:49;4.70;99.90
26621;DHT22;14253;44.840;10.444;2022-12-10T04:37:16;4.70;99.90
26621;DHT22;14253;44.840;10.444;2022-12-10T04:39:42;4.70;99.90
26621;DHT22;14253;44.840;10.444;2022-12-10T04:42:08;4.70;99.90
26621;DHT22;14253;44.840;10.444;2022-12-10T04:44:35;4.60;99.90
26621;DHT22;14253;44.840;10.444;2022-12-10T04:47:01;4.70;99.90
26621;DHT22;14253;44.840;10.444;2022-12-10T04:49:28;4.70;99.90
26621;DHT22;14253;44.840;10.444;2022-12-10T04:51:54;4.60;99.90
26621;DHT22;14253;44.840;10.444;2022-12-10T04:54:21;4.60;99.90
26621;DHT22;14253;44.840;10.444;2022-12-10T04:56:47;4.60;99.90
26621;DHT22;14253;44.840;10.444;2022-12-10T04:59:14;4.50;99.90
26621;DHT22;14253;44.840;10.444;2022-12-10T05:01:40;4.50;99.90
26621;DHT22;14253;44.840;10.444;2022-12-10T05:04:07;4.50;99.90
26621;DHT22;14253;44.840;10.444;2022-12-10T05:06:35;4.50;99.90
26621;DHT22;14253;44.840;10.444;2022-12-10T05:09:02;4.50;99.90
26621;DHT22;14253;44.840;10.444;2022-12-10T05:11:29;4.50;99.90
26621;DHT22;14253;44.840;10.444;2022-12-10T05:13:56;4.50;99.90
26621;DHT22;14253;44.840;10.444;2022-12-10T05:16:25;4.50;99.90
26621;DHT22;14253;44.840;10.444;2022-12-10T05:18:53;4.50;99.90
26621;DHT22;14253;44.840;10.444;2022-12-10T05:21:21;4.50;99.90
26621;DHT22;14253;44.840;10.444;2022-12-10T05:23:49;4.50;99.90
26621;DHT22;14253;44.840;10.444;2022-12-10T05:26:20;4.50;99.90
26621;DHT22;14253;44.840;10.444;2022-12-10T05:28:52;4.50;99.90
26621;DHT22;14253;44.840;10.444;2022-12-10T05:31:22;4.50;99.90
26621;DHT22;14253;44.840;10.444;2022-12-10T05:33:50;4.40;99.90
26621;DHT22;14253;44.840;10.444;2022-12-10T05:36:19;4.40;99.90
26621;DHT22;14253;44.840;10.444;2022-12-10T05:38:45;4.40;99.90
26621;DHT22;14253;44.840;10.444;2022-12-10T05:43:38;4.40;99.90
26621;DHT22;14253;44.840;10.444;2022-12-10T05:46:07;4.40;99.90
26621;DHT22;14253;44.840;10.444;2022-12-10T05:48:34;4.40;99.90
26621;DHT22;14253;44.840;10.444;2022-12-10T05:51:08;4.30;99.90
26621;DHT22;14253;44.840;10.444;2022-12-10T05:53:34;4.30;99.90
26621;DHT22;14253;44.840;10.444;2022-12-10T05:56:03;4.40;99.90
26621;DHT22;14253;44.840;10.444;2022-12-10T05:58:29;4.40;99.90
26621;DHT22;14253;44.840;10.444;2022-12-10T06:00:57;4.40;99.90
26621;DHT22;14253;44.840;10.444;2022-12-10T06:03:24;4.40;99.90
26621;DHT22;14253;44.840;10.444;2022-12-10T06:05:50;4.40;99.90
26621;DHT22;14253;44.840;10.444;2022-12-10T06:08:16;4.40;99.90
26621;DHT22;14253;44.840;10.444;2022-12-10T06:10:42;4.40;99.90
26621;DHT22;14253;44.840;10.444;2022-12-10T06:13:08;4.40;99.90
26621;DHT22;14253;44.840;10.444;2022-12-10T06:15:38;4.30;99.90
26621;DHT22;14253;44.840;10.444;2022-12-10T06:18:04;4.30;99.90
26621;DHT22;14253;44.840;10.444;2022-12-10T06:20:30;4.30;99.90
26621;DHT22;14253;44.840;10.444;2022-12-10T06:22:55;4.20;99.90
26621;DHT22;14253;44.840;10.444;2022-12-10T06:25:21;4.20;99.90
26621;DHT22;14253;44.840;10.444;2022-12-10T06:27:47;4.30;99.90
26621;DHT22;14253;44.840;10.444;2022-12-10T06:30:13;4.30;99.90
26621;DHT22;14253;44.840;10.444;2022-12-10T06:32:39;4.30;99.90
26621;DHT22;14253;44.840;10.444;2022-12-10T06:35:06;4.30;99.90
26621;DHT22;14253;44.840;10.444;2022-12-10T06:37:32;4.30;99.90
26621;DHT22;14253;44.840;10.444;2022-12-10T06:39:58;4.30;99.90
26621;DHT22;14253;44.840;10.444;2022-12-10T06:42:24;4.30;99.90
26621;DHT22;14253;44.840;10.444;2022-12-10T06:44:50;4.30;99.90
26621;DHT22;14253;44.840;10.444;2022-12-10T06:47:16;4.30;99.90
26621;DHT22;14253;44.840;10.444;2022-12-10T06:49:42;4.30;99.90
26621;DHT22;14253;44.840;10.444;2022-12-10T06:52:08;4.30;99.90
26621;DHT22;14253;44.840;10.444;2022-12-10T06:54:34;4.30;99.90
26621;DHT22;14253;44.840;10.444;2022-12-10T06:57:00;4.30;99.90
26621;DHT22;14253;44.840;10.444;2022-12-10T06:59:26;4.30;99.90
26621;DHT22;14253;44.840;10.444;2022-12-10T07:01:52;4.30;99.90
26621;DHT22;14253;44.840;10.444;2022-12-10T07:04:18;4.40;99.90
26621;DHT22;14253;44.840;10.444;2022-12-10T07:06:45;4.40;99.90
26621;DHT22;14253;44.840;10.444;2022-12-10T07:09:11;4.40;99.90
26621;DHT22;14253;44.840;10.444;2022-12-10T07:11:37;4.40;99.90
26621;DHT22;14253;44.840;10.444;2022-12-10T07:14:03;4.50;99.90
26621;DHT22;14253;44.840;10.444;2022-12-10T07:16:30;4.50;99.90
26621;DHT22;14253;44.840;10.444;2022-12-10T07:18:59;4.50;99.90
26621;DHT22;14253;44.840;10.444;2022-12-10T07:21:32;4.50;99.90
26621;DHT22;14253;44.840;10.444;2022-12-10T07:24:01;4.50;99.90
26621;DHT22;14253;44.840;10.444;2022-12-10T07:26:39;4.50;99.90
26621;DHT22;14253;44.840;10.444;2022-12-10T07:29:06;4.50;99.90
26621;DHT22;14253;44.840;10.444;2022-12-10T07:31:35;4.60;99.90
26621;DHT22;14253;44.840;10.444;2022-12-10T07:34:01;4.60;99.90
26621;DHT22;14253;44.840;10.444;2022-12-10T07:36:28;4.50;99.90
26621;DHT22;14253;44.840;10.444;2022-12-10T07:38:54;4.60;99.90
26621;DHT22;14253;44.840;10.444;2022-12-10T07:41:22;4.60;99.90
26621;DHT22;14253;44.840;10.444;2022-12-10T07:43:48;4.60;99.90
26621;DHT22;14253;44.840;10.444;2022-12-10T07:46:21;4.60;99.90
26621;DHT22;14253;44.840;10.444;2022-12-10T07:48:50;4.60;99.90
26621;DHT22;14253;44.840;10.444;2022-12-10T07:51:18;4.70;99.90
26621;DHT22;14253;44.840;10.444;2022-12-10T07:53:46;4.70;99.90
26621;DHT22;14253;44.840;10.444;2022-12-10T07:56:12;4.70;99.90
26621;DHT22;14253;44.840;10.444;2022-12-10T07:58:42;4.70;99.90
26621;DHT22;14253;44.840;10.444;2022-12-10T08:01:10;4.80;99.90
26621;DHT22;14253;44.840;10.444;2022-12-10T08:03:37;4.80;99.90
26621;DHT22;14253;44.840;10.444;2022-12-10T08:06:09;4.90;99.90
26621;DHT22;14253;44.840;10.444;2022-12-10T08:08:36;4.90;99.90
26621;DHT22;14253;44.840;10.444;2022-12-10T08:11:06;4.90;99.90
26621;DHT22;14253;44.840;10.444;2022-12-10T08:13:32;5.00;99.90
26621;DHT22;14253;44.840;10.444;2022-12-10T08:16:08;5.00;99.90
26621;DHT22;14253;44.840;10.444;2022-12-10T08:18:34;5.00;99.90
26621;DHT22;14253;44.840;10.444;2022-12-10T08:21:21;5.00;99.90
26621;DHT22;14253;44.840;10.444;2022-12-10T08:23:48;5.00;99.90
26621;DHT22;14253;44.840;10.444;2022-12-10T08:26:19;5.10;99.90
26621;DHT22;14253;44.840;10.444;2022-12-10T08:28:47;5.10;99.90
26621;DHT22;14253;44.840;10.444;2022-12-10T08:31:15;5.10;99.90
26621;DHT22;14253;44.840;10.444;2022-12-10T08:33:42;5.10;99.90
26621;DHT22;14253;44.840;10.444;2022-12-10T08:36:10;5.10;99.90
26621;DHT22;14253;44.840;10.444;2022-12-10T08:38:37;5.20;99.90
26621;DHT22;14253;44.840;10.444;2022-12-10T08:41:20;5.20;99.90
26621;DHT22;14253;44.840;10.444;2022-12-10T08:43:48;5.20;99.90
26621;DHT22;14253;44.840;10.444;2022-12-10T08:46:16;5.20;99.90
26621;DHT22;14253;44.840;10.444;2022-12-10T08:48:42;5.20;99.90
26621;DHT22;14253;44.840;10.444;2022-12-10T08:51:09;5.20;99.90
26621;DHT22;14253;44.840;10.444;2022-12-10T08:53:36;5.30;99.90
26621;DHT22;14253;44.840;10.444;2022-12-10T08:56:02;5.30;99.90
26621;DHT22;14253;44.840;10.444;2022-12-10T08:58:28;5.30;99.90
26621;DHT22;14253;44.840;10.444;2022-12-10T09:00:54;5.30;99.90
26621;DHT22;14253;44.840;10.444;2022-12-10T09:03:21;5.40;99.90
26621;DHT22;14253;44.840;10.444;2022-12-10T09:05:47;5.30;99.90
26621;DHT22;14253;44.840;10.444;2022-12-10T09:08:13;5.40;99.90
26621;DHT22;14253;44.840;10.444;2022-12-10T09:10:40;5.40;99.90
26621;DHT22;14253;44.840;10.444;2022-12-10T09:13:06;5.40;99.90
26621;DHT22;14253;44.840;10.444;2022-12-10T09:15:32;5.40;99.90
26621;DHT22;14253;44.840;10.444;2022-12-10T09:17:58;5.40;99.90
26621;DHT22;14253;44.840;10.444;2022-12-10T09:20:24;5.50;99.90
26621;DHT22;14253;44.840;10.444;2022-12-10T09:22:50;5.40;99.90
26621;DHT22;14253;44.840;10.444;2022-12-10T09:25:17;5.50;99.90
26621;DHT22;14253;44.840;10.444;2022-12-10T09:27:45;5.50;99.90
26621;DHT22;14253;44.840;10.444;2022-12-10T09:30:11;5.50;99.90
26621;DHT22;14253;44.840;10.444;2022-12-10T09:32:37;5.50;99.90
26621;DHT22;14253;44.840;10.444;2022-12-10T09:35:04;5.60;99.90
26621;DHT22;14253;44.840;10.444;2022-12-10T09:37:31;5.60;99.90
26621;DHT22;14253;44.840;10.444;2022-12-10T09:39:57;5.60;99.90
26621;DHT22;14253;44.840;10.444;2022-12-10T09:53:19;5.70;99.90
26621;DHT22;14253;44.840;10.444;2022-12-10T09:55:48;5.80;99.90
26621;DHT22;14253;44.840;10.444;2022-12-10T09:58:24;5.90;99.90
26621;DHT22;14253;44.840;10.444;2022-12-10T10:00:58;5.90;99.90
26621;DHT22;14253;44.840;10.444;2022-12-10T10:03:25;5.90;99.90
26621;DHT22;14253;44.840;10.444;2022-12-10T10:05:53;5.90;99.90
26621;DHT22;14253;44.840;10.444;2022-12-10T10:08:29;6.00;99.90
26621;DHT22;14253;44.840;10.444;2022-12-10T10:10:59;6.00;99.90
26621;DHT22;14253;44.840;10.444;2022-12-10T10:13:36;6.00;99.90
26621;DHT22;14253;44.840;10.444;2022-12-10T10:16:25;6.00;99.90
26621;DHT22;14253;44.840;10.444;2022-12-10T10:18:59;6.00;99.90
26621;DHT22;14253;44.840;10.444;2022-12-10T10:21:37;6.00;99.90
26621;DHT22;14253;44.840;10.444;2022-12-10T10:24:05;6.00;99.90
26621;DHT22;14253;44.840;10.444;2022-12-10T10:26:31;6.00;99.90
26621;DHT22;14253;44.840;10.444;2022-12-10T10:29:05;6.10;99.90
26621;DHT22;14253;44.840;10.444;2022-12-10T10:31:33;6.10;99.90
26621;DHT22;14253;44.840;10.444;2022-12-10T10:34:06;6.20;99.90
26621;DHT22;14253;44.840;10.444;2022-12-10T10:36:35;6.20;99.90
26621;DHT22;14253;44.840;10.444;2022-12-10T10:39:11;6.20;99.90
26621;DHT22;14253;44.840;10.444;2022-12-10T10:41:47;6.20;99.90
26621;DHT22;14253;44.840;10.444;2022-12-10T10:44:16;6.20;99.90
26621;DHT22;14253;44.840;10.444;2022-12-10T10:46:46;6.20;99.90
26621;DHT22;14253;44.840;10.444;2022-12-10T10:49:22;6.20;99.90
26621;DHT22;14253;44.840;10.444;2022-12-10T10:51:51;6.30;99.90
26621;DHT22;14253;44.840;10.444;2022-12-10T10:54:39;6.30;99.90
26621;DHT22;14253;44.840;10.444;2022-12-10T10:57:21;6.30;99.90
26621;DHT22;14253;44.840;10.444;2022-12-10T10:59:50;6.30;99.90
26621;DHT22;14253;44.840;10.444;2022-12-10T11:05:06;6.30;99.90
26621;DHT22;14253;44.840;10.444;2022-12-10T11:07:38;6.40;99.90
26621;DHT22;14253;44.840;10.444;2022-12-10T11:10:34;6.30;99.90
26621;DHT22;14253;44.840;10.444;2022-12-10T11:13:05;6.30;99.90
26621;DHT22;14253;44.840;10.444;2022-12-10T11:15:37;6.30;99.90
26621;DHT22;14253;44.840;10.444;2022-12-10T11:18:42;6.30;99.90
26621;DHT22;14253;44.840;10.444;2022-12-10T11:23:41;6.20;99.90
26621;DHT22;14253;44.840;10.444;2022-12-10T11:26:28;6.20;99.90
26621;DHT22;14253;44.840;10.444;2022-12-10T11:32:23;6.20;99.90
26621;DHT22;14253;44.840;10.444;2022-12-10T11:51:25;6.30;99.90
26621;DHT22;14253;44.840;10.444;2022-12-10T11:56:47;6.30;99.90
26621;DHT22;14253;44.840;10.444;2022-12-10T12:13:08;6.40;99.90
26621;DHT22;14253;44.840;10.444;2022-12-10T12:15:51;6.50;99.90
26621;DHT22;14253;44.840;10.444;2022-12-10T12:21:20;6.50;99.90
26621;DHT22;14253;44.840;10.444;2022-12-10T12:23:51;6.50;99.90
26621;DHT22;14253;44.840;10.444;2022-12-10T12:31:36;6.40;99.90
26621;DHT22;14253;44.840;10.444;2022-12-10T12:36:39;6.40;99.90
26621;DHT22;14253;44.840;10.444;2022-12-10T12:39:28;6.40;99.90
26621;DHT22;14253;44.840;10.444;2022-12-10T12:44:34;6.40;99.90
26621;DHT22;14253;44.840;10.444;2022-12-10T12:47:21;6.40;99.90
26621;DHT22;14253;44.840;10.444;2022-12-10T12:49:48;6.40;99.90
26621;DHT22;14253;44.840;10.444;2022-12-10T12:52:37;6.40;99.90
26621;DHT22;14253;44.840;10.444;2022-12-10T13:03:56;6.50;99.90
26621;DHT22;14253;44.840;10.444;2022-12-10T13:06:28;6.50;99.90
26621;DHT22;14253;44.840;10.444;2022-12-10T13:09:32;6.50;99.90
26621;DHT22;14253;44.840;10.444;2022-12-10T13:18:21;6.70;99.90
26621;DHT22;14253;44.840;10.444;2022-12-10T13:23:03;6.70;99.90
26621;DHT22;14253;44.840;10.444;2022-12-10T13:31:19;6.70;99.90
26621;DHT22;14253;44.840;10.444;2022-12-10T13:36:21;6.70;99.90
26621;DHT22;14253;44.840;10.444;2022-12-10T13:41:31;6.70;99.90
26621;DHT22;14253;44.840;10.444;2022-12-10T13:50:01;6.80;99.90
26621;DHT22;14253;44.840;10.444;2022-12-10T13:55:22;6.70;99.90
26621;DHT22;14253;44.840;10.444;2022-12-10T14:06:19;6.70;99.90
26621;DHT22;14253;44.840;10.444;2022-12-10T14:11:37;6.70;99.90
26621;DHT22;14253;44.840;10.444;2022-12-10T14:14:08;6.70;99.90
26621;DHT22;14253;44.840;10.444;2022-12-10T14:16:35;6.70;99.90
26621;DHT22;14253;44.840;10.444;2022-12-10T14:19:11;6.70;99.90
26621;DHT22;14253;44.840;10.444;2022-12-10T14:21:40;6.70;99.90
26621;DHT22;14253;44.840;10.444;2022-12-10T14:24:26;6.80;99.90
26621;DHT22;14253;44.840;10.444;2022-12-10T14:27:13;6.70;99.90
26621;DHT22;14253;44.840;10.444;2022-12-10T14:29:44;6.80;99.90
26621;DHT22;14253;44.840;10.444;2022-12-10T14:32:16;6.80;99.90
26621;DHT22;14253;44.840;10.444;2022-12-10T14:34:45;6.80;99.90
26621;DHT22;14253;44.840;10.444;2022-12-10T14:37:13;6.70;99.90
26621;DHT22;14253;44.840;10.444;2022-12-10T14:39:40;6.70;99.90
26621;DHT22;14253;44.840;10.444;2022-12-10T14:42:09;6.60;99.90
26621;DHT22;14253;44.840;10.444;2022-12-10T14:44:38;6.60;99.90
26621;DHT22;14253;44.840;10.444;2022-12-10T14:47:16;6.60;99.90
26621;DHT22;14253;44.840;10.444;2022-12-10T14:49:45;6.60;99.90
26621;DHT22;14253;44.840;10.444;2022-12-10T14:52:14;6.60;99.90
26621;DHT22;14253;44.840;10.444;2022-12-10T14:54:41;6.50;99.90
26621;DHT22;14253;44.840;10.444;2022-12-10T14:57:22;6.60;99.90
26621;DHT22;14253;44.840;10.444;2022-12-10T15:00:14;6.50;99.90
26621;DHT22;14253;44.840;10.444;2022-12-10T15:02:43;6.50;99.90
26621;DHT22;14253;44.840;10.444;2022-12-10T15:05:19;6.50;99.90
26621;DHT22;14253;44.840;10.444;2022-12-10T15:07:55;6.50;99.90
26621;DHT22;14253;44.840;10.444;2022-12-10T15:10:25;6.50;99.90
26621;DHT22;14253;44.840;10.444;2022-12-10T15:12:53;6.50;99.90
26621;DHT22;14253;44.840;10.444;2022-12-10T15:18:11;6.60;99.90
26621;DHT22;14253;44.840;10.444;2022-12-10T15:23:30;6.50;99.90
26621;DHT22;14253;44.840;10.444;2022-12-10T15:28:32;6.50;99.90
26621;DHT22;14253;44.840;10.444;2022-12-10T15:33:56;6.50;99.90
26621;DHT22;14253;44.840;10.444;2022-12-10T15:36:33;6.50;99.90
26621;DHT22;14253;44.840;10.444;2022-12-10T15:39:20;6.50;99.90
26621;DHT22;14253;44.840;10.444;2022-12-10T15:41:52;6.40;99.90
26621;DHT22;14253;44.840;10.444;2022-12-10T15:47:33;6.40;99.90
26621;DHT22;14253;44.840;10.444;2022-12-10T15:49:58;6.40;99.90
26621;DHT22;14253;44.840;10.444;2022-12-10T15:52:27;6.40;99.90
26621;DHT22;14253;44.840;10.444;2022-12-10T15:54:55;6.40;99.90
26621;DHT22;14253;44.840;10.444;2022-12-10T15:57:24;6.40;99.90
26621;DHT22;14253;44.840;10.444;2022-12-10T15:59:56;6.40;99.90
26621;DHT22;14253;44.840;10.444;2022-12-10T16:04:57;6.40;99.90
26621;DHT22;14253;44.840;10.444;2022-12-10T16:07:23;6.40;99.90
26621;DHT22;14253;44.840;10.444;2022-12-10T16:09:49;6.40;99.90
26621;DHT22;14253;44.840;10.444;2022-12-10T16:12:16;6.30;99.90
26621;DHT22;14253;44.840;10.444;2022-12-10T16:15:00;6.40;99.90
26621;DHT22;14253;44.840;10.444;2022-12-10T16:17:27;6.40;99.90
26621;DHT22;14253;44.840;10.444;2022-12-10T16:19:56;6.40;99.90
26621;DHT22;14253;44.840;10.444;2022-12-10T16:22:22;6.40;99.90
26621;DHT22;14253;44.840;10.444;2022-12-10T16:24:48;6.40;99.90
26621;DHT22;14253;44.840;10.444;2022-12-10T16:27:15;6.30;99.90
26621;DHT22;14253;44.840;10.444;2022-12-10T16:29:42;6.40;99.90
26621;DHT22;14253;44.840;10.444;2022-12-10T16:32:12;6.40;99.90
26621;DHT22;14253;44.840;10.444;2022-12-10T16:34:39;6.40;99.90
26621;DHT22;14253;44.840;10.444;2022-12-10T16:37:05;6.40;99.90
26621;DHT22;14253;44.840;10.444;2022-12-10T16:39:32;6.40;99.90
26621;DHT22;14253;44.840;10.444;2022-12-10T16:41:58;6.40;99.90
26621;DHT22;14253;44.840;10.444;2022-12-10T16:44:24;6.40;99.90
26621;DHT22;14253;44.840;10.444;2022-12-10T16:46:50;6.40;99.90
26621;DHT22;14253;44.840;10.444;2022-12-10T16:49:16;6.40;99.90
26621;DHT22;14253;44.840;10.444;2022-12-10T16:51:42;6.40;99.90
26621;DHT22;14253;44.840;10.444;2022-12-10T16:54:12;6.40;99.90
26621;DHT22;14253;44.840;10.444;2022-12-10T16:56:39;6.40;99.90
26621;DHT22;14253;44.840;10.444;2022-12-10T16:59:07;6.40;99.90
26621;DHT22;14253;44.840;10.444;2022-12-10T17:01:33;6.40;99.90
26621;DHT22;14253;44.840;10.444;2022-12-10T17:04:02;6.40;99.90
26621;DHT22;14253;44.840;10.444;2022-12-10T17:06:28;6.50;99.90
26621;DHT22;14253;44.840;10.444;2022-12-10T17:08:54;6.40;99.90
26621;DHT22;14253;44.840;10.444;2022-12-10T17:11:26;6.40;99.90
26621;DHT22;14253;44.840;10.444;2022-12-10T17:14:28;6.40;99.90
26621;DHT22;14253;44.840;10.444;2022-12-10T17:16:57;6.40;99.90
26621;DHT22;14253;44.840;10.444;2022-12-10T17:19:26;6.40;99.90
26621;DHT22;14253;44.840;10.444;2022-12-10T17:21:52;6.40;99.90
26621;DHT22;14253;44.840;10.444;2022-12-10T17:24:18;6.40;99.90
26621;DHT22;14253;44.840;10.444;2022-12-10T17:26:46;6.50;99.90
26621;DHT22;14253;44.840;10.444;2022-12-10T17:29:30;6.50;99.90
26621;DHT22;14253;44.840;10.444;2022-12-10T17:31:57;6.60;99.90
26621;DHT22;14253;44.840;10.444;2022-12-10T17:34:23;6.60;99.90
26621;DHT22;14253;44.840;10.444;2022-12-10T17:36:50;6.50;99.90
26621;DHT22;14253;44.840;10.444;2022-12-10T17:39:19;6.50;99.90
26621;DHT22;14253;44.840;10.444;2022-12-10T17:41:46;6.40;99.90
26621;DHT22;14253;44.840;10.444;2022-12-10T17:44:12;6.50;99.90
26621;DHT22;14253;44.840;10.444;2022-12-10T17:46:38;6.50;99.90
26621;DHT22;14253;44.840;10.444;2022-12-10T17:49:05;6.50;99.90
26621;DHT22;14253;44.840;10.444;2022-12-10T17:51:31;6.50;99.90
26621;DHT22;14253;44.840;10.444;2022-12-10T17:53:58;6.50;99.90
26621;DHT22;14253;44.840;10.444;2022-12-10T17:56:26;6.50;99.90
26621;DHT22;14253;44.840;10.444;2022-12-10T17:58:54;6.50;99.90
26621;DHT22;14253;44.840;10.444;2022-12-10T18:01:21;6.50;99.90
26621;DHT22;14253;44.840;10.444;2022-12-10T18:03:48;6.50;99.90
26621;DHT22;14253;44.840;10.444;2022-12-10T18:06:19;6.40;99.90
26621;DHT22;14253;44.840;10.444;2022-12-10T18:08:46;6.40;99.90
26621;DHT22;14253;44.840;10.444;2022-12-10T18:11:18;6.40;99.90
26621;DHT22;14253;44.840;10.444;2022-12-10T18:13:44;6.40;99.90
26621;DHT22;14253;44.840;10.444;2022-12-10T18:16:21;6.40;99.90
26621;DHT22;14253;44.840;10.444;2022-12-10T18:18:47;6.40;99.90
26621;DHT22;14253;44.840;10.444;2022-12-10T18:21:15;6.40;99.90